sensor_id;sensor_type;location;lat;lon;timestamp;temperature;humidity
83472;SHT30;74051;47.120;18.370;2023-11-19T00:00:07;2.30;88.44
83472;SHT30;74051;47.120;18.370;2023-11-19T00:02:38;2.27;83.59
83472;SHT30;74051;47.120;18.370;2023-11-19T00:05:05;2.26;85.64
83472;SHT30;74051;47.120;18.370;2023-11-19T00:07:35;2.27;83.58
83472;SHT30;74051;47.120;18.370;2023-11-19T00:10:02;2.38;88.00
83472;SHT30;74051;47.120;18.370;2023-11-19T00:12:33;2.38;87.07
83472;SHT30;74051;47.120;18.370;2023-11-19T00:14:59;2.35;85.52
83472;SHT30;74051;47.120;18.370;2023-11-19T00:17:26;2.35;84.44
83472;SHT30;74051;47.120;18.370;2023-11-19T00:19:53;2.37;84.27
83472;SHT30;74051;47.120;18.370;2023-11-19T00:22:19;2.38;86.70
83472;SHT30;74051;47.120;18.370;2023-11-19T00:24:47;2.27;83.88
83472;SHT30;74051;47.120;18.370;2023-11-19T00:27:14;2.18;84.15
83472;SHT30;74051;47.120;18.370;2023-11-19T00:29:41;2.18;86.42
83472;SHT30;74051;47.120;18.370;2023-11-19T00:32:08;2.09;84.34
83472;SHT30;74051;47.120;18.370;2023-11-19T00:34:35;2.07;84.01
83472;SHT30;74051;47.120;18.370;2023-11-19T00:37:01;2.03;82.94
83472;SHT30;74051;47.120;18.370;2023-11-19T00:39:30;2.20;88.24
83472;SHT30;74051;47.120;18.370;2023-11-19T00:41:56;2.16;85.75
83472;SHT30;74051;47.120;18.370;2023-11-19T00:44:22;2.18;86.08
83472;SHT30;74051;47.120;18.370;2023-11-19T00:46:49;2.14;83.40
83472;SHT30;74051;47.120;18.370;2023-11-19T00:49:16;2.16;86.19
83472;SHT30;74051;47.120;18.370;2023-11-19T00:51:42;2.11;83.96
83472;SHT30;74051;47.120;18.370;2023-11-19T00:54:09;2.14;87.48
83472;SHT30;74051;47.120;18.370;2023-11-19T00:56:35;2.18;85.88
83472;SHT30;74051;47.120;18.370;2023-11-19T00:59:02;2.16;85.29
83472;SHT30;74051;47.120;18.370;2023-11-19T01:01:28;2.06;83.56
83472;SHT30;74051;47.120;18.370;2023-11-19T01:03:55;2.00;84.47
83472;SHT30;74051;47.120;18.370;2023-11-19T01:06:30;1.95;83.97
83472;SHT30;74051;47.120;18.370;2023-11-19T01:08:57;1.96;84.86
83472;SHT30;74051;47.120;18.370;2023-11-19T01:11:25;1.99;87.21
83472;SHT30;74051;47.120;18.370;2023-11-19T01:13:51;1.99;86.24
83472;SHT30;74051;47.120;18.370;2023-11-19T01:16:18;1.93;84.20
83472;SHT30;74051;47.120;18.370;2023-11-19T01:18:47;2.02;86.49
83472;SHT30;74051;47.120;18.370;2023-11-19T01:21:14;1.92;84.85
83472;SHT30;74051;47.120;18.370;2023-11-19T01:23:43;1.99;84.41
83472;SHT30;74051;47.120;18.370;2023-11-19T01:26:11;2.11;85.35
83472;SHT30;74051;47.120;18.370;2023-11-19T01:28:40;2.30;84.11
83472;SHT30;74051;47.120;18.370;2023-11-19T01:31:09;2.24;85.94
83472;SHT30;74051;47.120;18.370;2023-11-19T01:33:36;2.18;86.31
83472;SHT30;74051;47.120;18.370;2023-11-19T01:36:03;2.28;86.61
83472;SHT30;74051;47.120;18.370;2023-11-19T01:38:30;2.30;86.41
83472;SHT30;74051;47.120;18.370;2023-11-19T01:41:00;2.31;84.65
83472;SHT30;74051;47.120;18.370;2023-11-19T01:43:33;2.55;84.52
83472;SHT30;74051;47.120;18.370;2023-11-19T01:46:01;2.61;84.56
83472;SHT30;74051;47.120;18.370;2023-11-19T01:48:28;2.47;81.35
83472;SHT30;74051;47.120;18.370;2023-11-19T01:50:55;2.45;84.32
83472;SHT30;74051;47.120;18.370;2023-11-19T01:53:22;2.31;83.32
83472;SHT30;74051;47.120;18.370;2023-11-19T01:55:49;2.30;87.47
83472;SHT30;74051;47.120;18.370;2023-11-19T01:58:16;2.23;86.14
83472;SHT30;74051;47.120;18.370;2023-11-19T02:00:44;2.17;85.32
83472;SHT30;74051;47.120;18.370;2023-11-19T02:03:11;2.27;88.30
83472;SHT30;74051;47.120;18.370;2023-11-19T02:05:39;2.30;87.55
83472;SHT30;74051;47.120;18.370;2023-11-19T02:08:06;2.26;85.56
83472;SHT30;74051;47.120;18.370;2023-11-19T02:10:32;2.24;87.32
83472;SHT30;74051;47.120;18.370;2023-11-19T02:13:01;2.14;83.79
83472;SHT30;74051;47.120;18.370;2023-11-19T02:15:27;2.16;83.79
83472;SHT30;74051;47.120;18.370;2023-11-19T02:17:54;2.13;87.31
83472;SHT30;74051;47.120;18.370;2023-11-19T02:20:20;2.14;85.70
83472;SHT30;74051;47.120;18.370;2023-11-19T02:22:47;2.23;86.54
83472;SHT30;74051;47.120;18.370;2023-11-19T02:25:20;2.17;85.38
83472;SHT30;74051;47.120;18.370;2023-11-19T02:27:57;2.23;86.98
83472;SHT30;74051;47.120;18.370;2023-11-19T02:30:25;2.21;87.11
83472;SHT30;74051;47.120;18.370;2023-11-19T02:32:53;2.21;87.06
83472;SHT30;74051;47.120;18.370;2023-11-19T02:35:20;2.17;84.72
83472;SHT30;74051;47.120;18.370;2023-11-19T02:37:48;2.17;87.05
83472;SHT30;74051;47.120;18.370;2023-11-19T02:40:14;2.30;86.69
83472;SHT30;74051;47.120;18.370;2023-11-19T02:42:41;2.34;87.40
83472;SHT30;74051;47.120;18.370;2023-11-19T02:45:08;2.52;86.77
83472;SHT30;74051;47.120;18.370;2023-11-19T02:47:41;2.56;85.00
83472;SHT30;74051;47.120;18.370;2023-11-19T02:50:11;2.35;85.20
83472;SHT30;74051;47.120;18.370;2023-11-19T02:52:44;2.23;84.19
83472;SHT30;74051;47.120;18.370;2023-11-19T02:55:12;2.14;84.93
83472;SHT30;74051;47.120;18.370;2023-11-19T02:57:40;2.06;85.22
83472;SHT30;74051;47.120;18.370;2023-11-19T03:00:18;2.02;87.89
83472;SHT30;74051;47.120;18.370;2023-11-19T03:02:45;1.99;87.24
83472;SHT30;74051;47.120;18.370;2023-11-19T03:05:20;1.90;86.44
83472;SHT30;74051;47.120;18.370;2023-11-19T03:07:46;1.79;85.46
83472;SHT30;74051;47.120;18.370;2023-11-19T03:10:13;1.73;86.41
83472;SHT30;74051;47.120;18.370;2023-11-19T03:12:44;1.75;88.61
83472;SHT30;74051;47.120;18.370;2023-11-19T03:15:11;1.83;90.19
83472;SHT30;74051;47.120;18.370;2023-11-19T03:17:39;1.80;86.80
83472;SHT30;74051;47.120;18.370;2023-11-19T03:20:07;1.79;87.78
83472;SHT30;74051;47.120;18.370;2023-11-19T03:22:39;1.66;85.59
83472;SHT30;74051;47.120;18.370;2023-11-19T03:25:08;1.60;88.72
83472;SHT30;74051;47.120;18.370;2023-11-19T03:27:38;1.63;87.17
83472;SHT30;74051;47.120;18.370;2023-11-19T03:30:08;1.62;89.38
83472;SHT30;74051;47.120;18.370;2023-11-19T03:32:38;1.97;87.96
83472;SHT30;74051;47.120;18.370;2023-11-19T03:35:06;2.09;88.19
83472;SHT30;74051;47.120;18.370;2023-11-19T03:37:35;1.89;85.36
83472;SHT30;74051;47.120;18.370;2023-11-19T03:40:03;1.79;86.27
83472;SHT30;74051;47.120;18.370;2023-11-19T03:42:30;1.78;88.64
83472;SHT30;74051;47.120;18.370;2023-11-19T03:44:57;1.65;85.17
83472;SHT30;74051;47.120;18.370;2023-11-19T03:47:24;1.72;89.77
83472;SHT30;74051;47.120;18.370;2023-11-19T03:49:51;1.63;86.18
83472;SHT30;74051;47.120;18.370;2023-11-19T03:52:18;1.72;89.34
83472;SHT30;74051;47.120;18.370;2023-11-19T03:54:45;1.58;87.13
83472;SHT30;74051;47.120;18.370;2023-11-19T03:57:14;1.52;89.28
83472;SHT30;74051;47.120;18.370;2023-11-19T03:59:42;1.49;87.81
83472;SHT30;74051;47.120;18.370;2023-11-19T04:02:08;1.42;87.70
83472;SHT30;74051;47.120;18.370;2023-11-19T04:04:35;1.27;86.92
83472;SHT30;74051;47.120;18.370;2023-11-19T04:07:01;1.16;86.92
83472;SHT30;74051;47.120;18.370;2023-11-19T04:09:29;1.00;87.80
83472;SHT30;74051;47.120;18.370;2023-11-19T04:12:00;1.01;90.03
83472;SHT30;74051;47.120;18.370;2023-11-19T04:14:26;0.93;88.58
83472;SHT30;74051;47.120;18.370;2023-11-19T04:16:53;0.91;89.71
83472;SHT30;74051;47.120;18.370;2023-11-19T04:19:19;1.03;91.91
83472;SHT30;74051;47.120;18.370;2023-11-19T04:21:46;1.16;90.60
83472;SHT30;74051;47.120;18.370;2023-11-19T04:24:12;1.18;89.41
83472;SHT30;74051;47.120;18.370;2023-11-19T04:26:44;1.20;90.02
83472;SHT30;74051;47.120;18.370;2023-11-19T04:29:13;1.00;87.72
83472;SHT30;74051;47.120;18.370;2023-11-19T04:31:41;0.86;88.02
83472;SHT30;74051;47.120;18.370;2023-11-19T04:34:07;0.91;92.05
83472;SHT30;74051;47.120;18.370;2023-11-19T04:36:34;1.16;92.43
83472;SHT30;74051;47.120;18.370;2023-11-19T04:39:01;1.21;89.96
83472;SHT30;74051;47.120;18.370;2023-11-19T04:41:27;1.30;91.27
83472;SHT30;74051;47.120;18.370;2023-11-19T04:43:54;1.23;89.13
83472;SHT30;74051;47.120;18.370;2023-11-19T04:46:21;1.01;88.49
83472;SHT30;74051;47.120;18.370;2023-11-19T04:48:48;0.98;90.10
83472;SHT30;74051;47.120;18.370;2023-11-19T04:51:14;1.03;89.25
83472;SHT30;74051;47.120;18.370;2023-11-19T04:53:40;1.13;88.05
83472;SHT30;74051;47.120;18.370;2023-11-19T04:56:08;1.11;89.34
83472;SHT30;74051;47.120;18.370;2023-11-19T04:58:35;1.16;87.32
83472;SHT30;74051;47.120;18.370;2023-11-19T05:01:04;1.23;88.80
83472;SHT30;74051;47.120;18.370;2023-11-19T05:03:31;1.42;91.14
83472;SHT30;74051;47.120;18.370;2023-11-19T05:05:58;1.58;90.71
83472;SHT30;74051;47.120;18.370;2023-11-19T05:08:24;1.72;88.46
83472;SHT30;74051;47.120;18.370;2023-11-19T05:10:51;1.63;85.63
83472;SHT30;74051;47.120;18.370;2023-11-19T05:13:17;1.68;85.75
83472;SHT30;74051;47.120;18.370;2023-11-19T05:15:43;1.66;86.26
83472;SHT30;74051;47.120;18.370;2023-11-19T05:18:10;1.93;89.40
83472;SHT30;74051;47.120;18.370;2023-11-19T05:20:36;2.16;89.60
83472;SHT30;74051;47.120;18.370;2023-11-19T05:23:03;2.03;88.59
83472;SHT30;74051;47.120;18.370;2023-11-19T05:25:29;2.24;85.76
83472;SHT30;74051;47.120;18.370;2023-11-19T05:27:56;2.28;86.13
83472;SHT30;74051;47.120;18.370;2023-11-19T05:30:22;2.26;85.53
83472;SHT30;74051;47.120;18.370;2023-11-19T05:32:49;2.23;86.77
83472;SHT30;74051;47.120;18.370;2023-11-19T05:35:16;2.09;84.74
83472;SHT30;74051;47.120;18.370;2023-11-19T05:37:42;1.97;86.27
83472;SHT30;74051;47.120;18.370;2023-11-19T05:40:09;2.00;84.89
83472;SHT30;74051;47.120;18.370;2023-11-19T05:42:41;1.96;84.59
83472;SHT30;74051;47.120;18.370;2023-11-19T05:45:10;1.78;84.53
83472;SHT30;74051;47.120;18.370;2023-11-19T05:47:37;1.80;85.85
83472;SHT30;74051;47.120;18.370;2023-11-19T05:50:04;1.79;85.59
83472;SHT30;74051;47.120;18.370;2023-11-19T05:52:32;1.79;85.24
83472;SHT30;74051;47.120;18.370;2023-11-19T05:55:02;1.70;86.48
83472;SHT30;74051;47.120;18.370;2023-11-19T05:57:39;1.65;87.41
83472;SHT30;74051;47.120;18.370;2023-11-19T06:00:07;1.66;87.67
83472;SHT30;74051;47.120;18.370;2023-11-19T06:02:38;1.72;88.16
83472;SHT30;74051;47.120;18.370;2023-11-19T06:05:05;1.76;88.06
83472;SHT30;74051;47.120;18.370;2023-11-19T06:07:33;1.87;86.96
83472;SHT30;74051;47.120;18.370;2023-11-19T06:10:00;1.95;87.14
83472;SHT30;74051;47.120;18.370;2023-11-19T06:12:26;2.05;85.32
83472;SHT30;74051;47.120;18.370;2023-11-19T06:14:53;2.03;85.15
83472;SHT30;74051;47.120;18.370;2023-11-19T06:17:20;2.00;84.17
83472;SHT30;74051;47.120;18.370;2023-11-19T06:19:47;2.00;85.30
83472;SHT30;74051;47.120;18.370;2023-11-19T06:22:13;1.95;85.71
83472;SHT30;74051;47.120;18.370;2023-11-19T06:24:40;1.93;84.62
83472;SHT30;74051;47.120;18.370;2023-11-19T06:27:06;2.10;86.90
83472;SHT30;74051;47.120;18.370;2023-11-19T06:29:32;2.33;84.18
83472;SHT30;74051;47.120;18.370;2023-11-19T06:31:59;2.42;82.76
83472;SHT30;74051;47.120;18.370;2023-11-19T06:34:26;2.49;83.82
83472;SHT30;74051;47.120;18.370;2023-11-19T06:36:52;2.51;82.13
83472;SHT30;74051;47.120;18.370;2023-11-19T06:39:18;2.56;83.23
83472;SHT30;74051;47.120;18.370;2023-11-19T06:41:46;2.78;81.35
83472;SHT30;74051;47.120;18.370;2023-11-19T06:44:13;3.00;79.88
83472;SHT30;74051;47.120;18.370;2023-11-19T06:46:39;2.86;80.14
83472;SHT30;74051;47.120;18.370;2023-11-19T06:49:06;2.85;80.62
83472;SHT30;74051;47.120;18.370;2023-11-19T06:51:34;2.64;81.10
83472;SHT30;74051;47.120;18.370;2023-11-19T06:54:01;2.66;81.94
83472;SHT30;74051;47.120;18.370;2023-11-19T06:56:27;2.64;82.26
83472;SHT30;74051;47.120;18.370;2023-11-19T06:58:54;2.64;81.78
83472;SHT30;74051;47.120;18.370;2023-11-19T07:01:20;2.52;82.09
83472;SHT30;74051;47.120;18.370;2023-11-19T07:03:47;2.41;82.64
83472;SHT30;74051;47.120;18.370;2023-11-19T07:06:14;2.40;83.27
83472;SHT30;74051;47.120;18.370;2023-11-19T07:08:41;2.47;83.15
83472;SHT30;74051;47.120;18.370;2023-11-19T07:11:08;2.42;83.56
83472;SHT30;74051;47.120;18.370;2023-11-19T07:13:36;2.37;83.73
83472;SHT30;74051;47.120;18.370;2023-11-19T07:16:03;2.41;83.75
83472;SHT30;74051;47.120;18.370;2023-11-19T07:18:29;2.41;83.58
83472;SHT30;74051;47.120;18.370;2023-11-19T07:20:57;2.51;83.56
83472;SHT30;74051;47.120;18.370;2023-11-19T07:23:25;2.48;84.33
83472;SHT30;74051;47.120;18.370;2023-11-19T07:25:52;2.61;83.41
83472;SHT30;74051;47.120;18.370;2023-11-19T07:28:19;2.68;83.45
83472;SHT30;74051;47.120;18.370;2023-11-19T07:30:46;2.71;83.58
83472;SHT30;74051;47.120;18.370;2023-11-19T07:33:12;2.78;83.35
83472;SHT30;74051;47.120;18.370;2023-11-19T07:35:40;2.84;83.88
83472;SHT30;74051;47.120;18.370;2023-11-19T07:38:08;2.96;83.09
83472;SHT30;74051;47.120;18.370;2023-11-19T07:40:34;3.00;83.05
83472;SHT30;74051;47.120;18.370;2023-11-19T07:43:01;3.02;82.99
83472;SHT30;74051;47.120;18.370;2023-11-19T07:45:27;3.23;81.92
83472;SHT30;74051;47.120;18.370;2023-11-19T07:47:54;3.33;83.20
83472;SHT30;74051;47.120;18.370;2023-11-19T07:50:21;3.38;82.04
83472;SHT30;74051;47.120;18.370;2023-11-19T07:52:47;3.38;81.49
83472;SHT30;74051;47.120;18.370;2023-11-19T07:55:14;3.54;80.77
83472;SHT30;74051;47.120;18.370;2023-11-19T07:57:40;3.61;82.39
83472;SHT30;74051;47.120;18.370;2023-11-19T08:00:07;3.65;79.90
83472;SHT30;74051;47.120;18.370;2023-11-19T08:02:41;3.54;80.90
83472;SHT30;74051;47.120;18.370;2023-11-19T08:05:07;3.54;82.27
83472;SHT30;74051;47.120;18.370;2023-11-19T08:07:34;3.51;80.99
83472;SHT30;74051;47.120;18.370;2023-11-19T08:10:00;3.45;82.29
83472;SHT30;74051;47.120;18.370;2023-11-19T08:12:26;3.48;82.29
83472;SHT30;74051;47.120;18.370;2023-11-19T08:14:53;3.58;82.00
83472;SHT30;74051;47.120;18.370;2023-11-19T08:17:19;3.63;81.81
83472;SHT30;74051;47.120;18.370;2023-11-19T08:19:45;3.64;84.98
83472;SHT30;74051;47.120;18.370;2023-11-19T08:22:12;3.71;83.09
83472;SHT30;74051;47.120;18.370;2023-11-19T08:24:38;3.84;81.32
83472;SHT30;74051;47.120;18.370;2023-11-19T08:27:04;3.88;81.09
83472;SHT30;74051;47.120;18.370;2023-11-19T08:29:31;3.79;80.38
83472;SHT30;74051;47.120;18.370;2023-11-19T08:31:57;3.75;81.52
83472;SHT30;74051;47.120;18.370;2023-11-19T08:34:24;3.88;82.10
83472;SHT30;74051;47.120;18.370;2023-11-19T08:36:51;3.99;79.85
83472;SHT30;74051;47.120;18.370;2023-11-19T08:39:19;3.95;80.76
83472;SHT30;74051;47.120;18.370;2023-11-19T08:41:47;4.01;80.18
83472;SHT30;74051;47.120;18.370;2023-11-19T08:44:14;4.09;79.70
83472;SHT30;74051;47.120;18.370;2023-11-19T08:46:50;4.17;78.67
83472;SHT30;74051;47.120;18.370;2023-11-19T08:49:17;4.24;78.52
83472;SHT30;74051;47.120;18.370;2023-11-19T08:51:43;4.34;79.91
83472;SHT30;74051;47.120;18.370;2023-11-19T08:54:10;4.14;80.25
83472;SHT30;74051;47.120;18.370;2023-11-19T08:56:38;4.12;81.15
83472;SHT30;74051;47.120;18.370;2023-11-19T08:59:05;3.99;80.88
83472;SHT30;74051;47.120;18.370;2023-11-19T09:01:31;4.03;81.46
83472;SHT30;74051;47.120;18.370;2023-11-19T09:03:58;4.23;80.07
83472;SHT30;74051;47.120;18.370;2023-11-19T09:06:24;4.22;80.66
83472;SHT30;74051;47.120;18.370;2023-11-19T09:08:50;4.40;79.80
83472;SHT30;74051;47.120;18.370;2023-11-19T09:11:16;4.51;80.32
83472;SHT30;74051;47.120;18.370;2023-11-19T09:13:43;4.58;77.95
83472;SHT30;74051;47.120;18.370;2023-11-19T09:16:14;4.56;77.69
83472;SHT30;74051;47.120;18.370;2023-11-19T09:18:42;4.54;77.46
83472;SHT30;74051;47.120;18.370;2023-11-19T09:21:10;4.43;77.53
83472;SHT30;74051;47.120;18.370;2023-11-19T09:23:37;4.53;77.85
83472;SHT30;74051;47.120;18.370;2023-11-19T09:26:05;4.57;77.17
83472;SHT30;74051;47.120;18.370;2023-11-19T09:28:32;4.58;76.44
83472;SHT30;74051;47.120;18.370;2023-11-19T09:30:58;4.80;75.32
83472;SHT30;74051;47.120;18.370;2023-11-19T09:33:25;4.75;74.79
83472;SHT30;74051;47.120;18.370;2023-11-19T09:35:52;4.71;74.56
83472;SHT30;74051;47.120;18.370;2023-11-19T09:38:19;4.74;75.38
83472;SHT30;74051;47.120;18.370;2023-11-19T09:40:46;4.61;75.17
83472;SHT30;74051;47.120;18.370;2023-11-19T09:43:15;4.63;75.46
83472;SHT30;74051;47.120;18.370;2023-11-19T09:45:48;4.68;75.61
83472;SHT30;74051;47.120;18.370;2023-11-19T09:48:19;4.71;74.92
83472;SHT30;74051;47.120;18.370;2023-11-19T09:50:47;4.74;75.38
83472;SHT30;74051;47.120;18.370;2023-11-19T09:53:14;4.88;74.84
83472;SHT30;74051;47.120;18.370;2023-11-19T09:55:41;4.92;75.02
83472;SHT30;74051;47.120;18.370;2023-11-19T09:58:07;4.85;74.60
83472;SHT30;74051;47.120;18.370;2023-11-19T10:00:34;4.89;74.47
83472;SHT30;74051;47.120;18.370;2023-11-19T10:03:01;4.84;74.22
83472;SHT30;74051;47.120;18.370;2023-11-19T10:05:28;5.02;74.86
83472;SHT30;74051;47.120;18.370;2023-11-19T10:07:55;5.04;73.60
83472;SHT30;74051;47.120;18.370;2023-11-19T10:10:21;5.16;74.58
83472;SHT30;74051;47.120;18.370;2023-11-19T10:12:52;5.29;74.73
83472;SHT30;74051;47.120;18.370;2023-11-19T10:15:22;5.22;73.68
83472;SHT30;74051;47.120;18.370;2023-11-19T10:17:51;5.36;72.04
83472;SHT30;74051;47.120;18.370;2023-11-19T10:20:17;5.50;71.29
83472;SHT30;74051;47.120;18.370;2023-11-19T10:22:44;5.51;71.66
83472;SHT30;74051;47.120;18.370;2023-11-19T10:25:22;5.64;71.05
83472;SHT30;74051;47.120;18.370;2023-11-19T10:27:51;5.63;71.13
83472;SHT30;74051;47.120;18.370;2023-11-19T10:30:20;5.54;70.70
83472;SHT30;74051;47.120;18.370;2023-11-19T10:35:28;5.53;71.74
83472;SHT30;74051;47.120;18.370;2023-11-19T10:37:54;5.53;71.52
83472;SHT30;74051;47.120;18.370;2023-11-19T10:40:22;5.33;73.26
83472;SHT30;74051;47.120;18.370;2023-11-19T10:42:48;5.16;74.42
83472;SHT30;74051;47.120;18.370;2023-11-19T10:45:22;4.98;75.61
83472;SHT30;74051;47.120;18.370;2023-11-19T10:47:52;4.99;75.73
83472;SHT30;74051;47.120;18.370;2023-11-19T10:50:20;5.07;74.98
83472;SHT30;74051;47.120;18.370;2023-11-19T10:52:47;5.12;76.22
83472;SHT30;74051;47.120;18.370;2023-11-19T10:55:15;5.19;77.04
83472;SHT30;74051;47.120;18.370;2023-11-19T10:57:47;5.13;76.77
83472;SHT30;74051;47.120;18.370;2023-11-19T11:00:18;5.35;76.44
83472;SHT30;74051;47.120;18.370;2023-11-19T11:02:49;5.30;76.58
83472;SHT30;74051;47.120;18.370;2023-11-19T11:05:17;5.25;78.18
83472;SHT30;74051;47.120;18.370;2023-11-19T11:07:45;5.30;77.61
83472;SHT30;74051;47.120;18.370;2023-11-19T11:10:13;5.23;77.59
83472;SHT30;74051;47.120;18.370;2023-11-19T11:12:43;5.21;77.10
83472;SHT30;74051;47.120;18.370;2023-11-19T11:15:11;5.15;77.84
83472;SHT30;74051;47.120;18.370;2023-11-19T11:17:41;5.11;77.24
83472;SHT30;74051;47.120;18.370;2023-11-19T11:20:09;5.13;77.63
83472;SHT30;74051;47.120;18.370;2023-11-19T11:22:46;5.16;77.09
83472;SHT30;74051;47.120;18.370;2023-11-19T11:30:54;5.26;76.15
83472;SHT30;74051;47.120;18.370;2023-11-19T11:33:32;5.23;76.26
83472;SHT30;74051;47.120;18.370;2023-11-19T11:38:29;5.38;74.82
83472;SHT30;74051;47.120;18.370;2023-11-19T11:41:15;5.36;74.44
83472;SHT30;74051;47.120;18.370;2023-11-19T11:43:50;5.39;73.81
83472;SHT30;74051;47.120;18.370;2023-11-19T11:49:08;5.50;75.32
83472;SHT30;74051;47.120;18.370;2023-11-19T11:54:29;5.81;73.07
83472;SHT30;74051;47.120;18.370;2023-11-19T11:57:03;5.94;72.65
83472;SHT30;74051;47.120;18.370;2023-11-19T12:02:09;6.40;71.14
83472;SHT30;74051;47.120;18.370;2023-11-19T12:04:36;6.35;70.30
83472;SHT30;74051;47.120;18.370;2023-11-19T12:07:16;6.29;72.10
83472;SHT30;74051;47.120;18.370;2023-11-19T12:10:07;6.32;70.86
83472;SHT30;74051;47.120;18.370;2023-11-19T12:12:35;6.48;71.51
83472;SHT30;74051;47.120;18.370;2023-11-19T12:15:08;6.46;69.22
83472;SHT30;74051;47.120;18.370;2023-11-19T12:17:47;6.50;69.92
83472;SHT30;74051;47.120;18.370;2023-11-19T12:20:19;6.57;70.36
83472;SHT30;74051;47.120;18.370;2023-11-19T12:22:46;6.66;71.40
83472;SHT30;74051;47.120;18.370;2023-11-19T12:25:16;6.69;70.12
83472;SHT30;74051;47.120;18.370;2023-11-19T12:27:50;6.62;67.56
83472;SHT30;74051;47.120;18.370;2023-11-19T12:30:24;6.60;69.07
83472;SHT30;74051;47.120;18.370;2023-11-19T12:32:52;6.70;68.73
83472;SHT30;74051;47.120;18.370;2023-11-19T12:35:20;6.73;65.77
83472;SHT30;74051;47.120;18.370;2023-11-19T12:37:47;6.66;67.25
83472;SHT30;74051;47.120;18.370;2023-11-19T12:40:21;6.73;66.20
83472;SHT30;74051;47.120;18.370;2023-11-19T12:42:49;6.81;66.38
83472;SHT30;74051;47.120;18.370;2023-11-19T12:45:16;6.93;66.69
83472;SHT30;74051;47.120;18.370;2023-11-19T12:47:43;7.04;66.31
83472;SHT30;74051;47.120;18.370;2023-11-19T12:50:10;7.12;66.00
83472;SHT30;74051;47.120;18.370;2023-11-19T12:52:37;7.01;65.36
83472;SHT30;74051;47.120;18.370;2023-11-19T12:55:05;7.11;65.43
83472;SHT30;74051;47.120;18.370;2023-11-19T12:57:42;7.18;65.89
83472;SHT30;74051;47.120;18.370;2023-11-19T13:00:18;7.17;64.66
83472;SHT30;74051;47.120;18.370;2023-11-19T13:02:52;7.22;65.07
83472;SHT30;74051;47.120;18.370;2023-11-19T13:05:23;7.17;64.77
83472;SHT30;74051;47.120;18.370;2023-11-19T13:07:50;7.18;65.35
83472;SHT30;74051;47.120;18.370;2023-11-19T13:10:17;7.21;64.17
83472;SHT30;74051;47.120;18.370;2023-11-19T13:12:43;7.27;64.62
83472;SHT30;74051;47.120;18.370;2023-11-19T13:15:23;7.31;63.82
83472;SHT30;74051;47.120;18.370;2023-11-19T13:17:51;7.22;63.50
83472;SHT30;74051;47.120;18.370;2023-11-19T13:20:17;7.18;65.03
83472;SHT30;74051;47.120;18.370;2023-11-19T13:23:07;7.15;65.66
83472;SHT30;74051;47.120;18.370;2023-11-19T13:25:33;7.15;65.60
83472;SHT30;74051;47.120;18.370;2023-11-19T13:28:00;7.14;67.38
83472;SHT30;74051;47.120;18.370;2023-11-19T13:30:26;6.96;67.56
83472;SHT30;74051;47.120;18.370;2023-11-19T13:32:53;6.86;69.71
83472;SHT30;74051;47.120;18.370;2023-11-19T13:35:21;6.76;69.61
83472;SHT30;74051;47.120;18.370;2023-11-19T13:37:51;6.63;71.20
83472;SHT30;74051;47.120;18.370;2023-11-19T13:40:17;6.63;71.59
83472;SHT30;74051;47.120;18.370;2023-11-19T13:42:45;6.69;70.53
83472;SHT30;74051;47.120;18.370;2023-11-19T13:45:12;6.70;71.24
83472;SHT30;74051;47.120;18.370;2023-11-19T13:47:40;6.76;71.69
83472;SHT30;74051;47.120;18.370;2023-11-19T13:50:16;6.79;72.13
83472;SHT30;74051;47.120;18.370;2023-11-19T13:52:46;6.97;71.15
83472;SHT30;74051;47.120;18.370;2023-11-19T13:55:13;7.03;71.43
83472;SHT30;74051;47.120;18.370;2023-11-19T13:57:41;7.03;72.63
83472;SHT30;74051;47.120;18.370;2023-11-19T14:00:10;6.98;72.43
83472;SHT30;74051;47.120;18.370;2023-11-19T14:02:46;6.96;71.68
83472;SHT30;74051;47.120;18.370;2023-11-19T14:05:16;6.96;71.67
83472;SHT30;74051;47.120;18.370;2023-11-19T14:07:45;6.97;71.90
83472;SHT30;74051;47.120;18.370;2023-11-19T14:10:15;6.94;72.06
83472;SHT30;74051;47.120;18.370;2023-11-19T14:12:42;6.91;71.52
83472;SHT30;74051;47.120;18.370;2023-11-19T14:15:09;6.87;72.90
83472;SHT30;74051;47.120;18.370;2023-11-19T14:17:38;6.81;73.67
83472;SHT30;74051;47.120;18.370;2023-11-19T14:20:05;6.73;74.60
83472;SHT30;74051;47.120;18.370;2023-11-19T14:22:43;6.90;72.43
83472;SHT30;74051;47.120;18.370;2023-11-19T14:25:10;6.94;72.92
83472;SHT30;74051;47.120;18.370;2023-11-19T14:27:38;6.91;73.74
83472;SHT30;74051;47.120;18.370;2023-11-19T14:30:10;6.81;74.11
83472;SHT30;74051;47.120;18.370;2023-11-19T14:32:43;6.57;76.40
83472;SHT30;74051;47.120;18.370;2023-11-19T14:35:13;6.49;76.19
83472;SHT30;74051;47.120;18.370;2023-11-19T14:37:39;6.52;75.08
83472;SHT30;74051;47.120;18.370;2023-11-19T14:40:06;6.52;76.36
83472;SHT30;74051;47.120;18.370;2023-11-19T14:42:35;6.54;75.45
83472;SHT30;74051;47.120;18.370;2023-11-19T14:45:01;6.70;75.01
83472;SHT30;74051;47.120;18.370;2023-11-19T14:47:28;6.77;74.96
83472;SHT30;74051;47.120;18.370;2023-11-19T14:49:55;6.84;74.94
83472;SHT30;74051;47.120;18.370;2023-11-19T14:52:21;6.86;75.31
83472;SHT30;74051;47.120;18.370;2023-11-19T14:54:48;6.73;77.10
83472;SHT30;74051;47.120;18.370;2023-11-19T14:57:14;6.80;78.37
83472;SHT30;74051;47.120;18.370;2023-11-19T14:59:41;6.80;79.09
83472;SHT30;74051;47.120;18.370;2023-11-19T15:02:07;6.88;78.66
83472;SHT30;74051;47.120;18.370;2023-11-19T15:04:34;6.84;78.22
83472;SHT30;74051;47.120;18.370;2023-11-19T15:07:01;6.84;76.65
83472;SHT30;74051;47.120;18.370;2023-11-19T15:09:27;6.86;77.48
83472;SHT30;74051;47.120;18.370;2023-11-19T15:11:53;6.81;77.23
83472;SHT30;74051;47.120;18.370;2023-11-19T15:14:20;6.86;78.28
83472;SHT30;74051;47.120;18.370;2023-11-19T15:16:47;6.90;78.61
83472;SHT30;74051;47.120;18.370;2023-11-19T15:19:17;6.86;79.93
83472;SHT30;74051;47.120;18.370;2023-11-19T15:21:43;6.81;81.16
83472;SHT30;74051;47.120;18.370;2023-11-19T15:24:10;6.86;79.01
83472;SHT30;74051;47.120;18.370;2023-11-19T15:26:37;6.90;81.39
83472;SHT30;74051;47.120;18.370;2023-11-19T15:29:04;6.97;78.55
83472;SHT30;74051;47.120;18.370;2023-11-19T15:31:31;7.01;79.19
83472;SHT30;74051;47.120;18.370;2023-11-19T15:33:58;6.96;76.89
83472;SHT30;74051;47.120;18.370;2023-11-19T15:36:24;6.83;76.52
83472;SHT30;74051;47.120;18.370;2023-11-19T15:38:50;7.11;74.49
83472;SHT30;74051;47.120;18.370;2023-11-19T15:41:17;7.11;75.38
83472;SHT30;74051;47.120;18.370;2023-11-19T15:43:43;6.97;78.85
83472;SHT30;74051;47.120;18.370;2023-11-19T15:46:10;6.77;80.28
83472;SHT30;74051;47.120;18.370;2023-11-19T15:48:37;6.79;79.56
83472;SHT30;74051;47.120;18.370;2023-11-19T15:51:03;6.75;80.51
83472;SHT30;74051;47.120;18.370;2023-11-19T15:53:30;6.63;82.68